Time;durP1;ratioP1;P1;durP2;ratioP2;P2;SDS_P1;SDS_P2;PMS_P1;PMS_P2;Temp;Humidity;BMP_temperature;BMP_pressure;BME280_temperature;BME280_humidity;BME280_pressure;Samples;Min_cycle;Max_cycle;Signal;HPM_P1;HPM_P2
2023/02/17 00:01:37;;;;;;;1.48;1.38;;;;;;;10.67;100.00;100905.03;5005577;28;20037;-70
2023/02/17 00:04:03;;;;;;;2.17;0.65;;;;;;;10.73;100.00;100907.13;4963557;28;20513;-70
2023/02/17 00:06:30;;;;;;;1.30;0.85;;;;;;;10.65;100.00;100902.69;5006659;28;20029;-70
2023/02/17 00:08:56;;;;;;;1.85;1.35;;;;;;;10.62;100.00;100898.00;5004386;28;20038;-69
2023/02/17 00:11:22;;;;;;;2.30;1.13;;;;;;;10.61;100.00;100899.13;4996510;28;20046;-70
2023/02/17 00:13:48;;;;;;;2.10;1.17;;;;;;;10.69;100.00;100892.00;4990968;28;20037;-70
2023/02/17 00:16:20;;;;;;;1.25;1.15;;;;;;;10.71;100.00;100898.59;5007609;28;20041;-69
2023/02/17 00:18:46;;;;;;;2.72;0.95;;;;;;;10.68;100.00;100893.13;5004750;28;20510;-70
2023/02/17 00:21:22;;;;;;;1.08;1.00;;;;;;;10.70;100.00;100886.25;5004401;28;20048;-70
2023/02/17 00:23:49;;;;;;;1.50;0.93;;;;;;;10.63;100.00;100878.00;5002170;28;20062;-70
2023/02/17 00:26:16;;;;;;;1.58;0.98;;;;;;;10.72;100.00;100877.84;5001625;28;20495;-70
2023/02/17 00:28:43;;;;;;;0.52;0.43;;;;;;;10.70;100.00;100880.88;5000956;28;20080;-70
2023/02/17 00:31:12;;;;;;;0.85;0.70;;;;;;;10.68;100.00;100876.97;4994999;28;20061;-70
2023/02/17 00:33:37;;;;;;;1.10;0.75;;;;;;;10.58;100.00;100883.69;4998190;28;20486;-70
2023/02/17 00:36:11;;;;;;;1.17;1.05;;;;;;;10.70;100.00;100870.09;5006427;28;20029;-70
2023/02/17 00:38:36;;;;;;;0.82;0.73;;;;;;;10.79;100.00;100872.59;4998432;28;20044;-69
2023/02/17 00:41:02;;;;;;;1.88;1.33;;;;;;;10.71;100.00;100868.19;5002596;28;20034;-69
2023/02/17 00:43:29;;;;;;;2.15;0.98;;;;;;;10.75;100.00;100869.84;4990724;28;20426;-69
2023/02/17 00:45:55;;;;;;;0.85;0.85;;;;;;;10.81;100.00;100873.03;5001304;28;20033;-69
2023/02/17 00:48:21;;;;;;;1.75;0.68;;;;;;;10.72;100.00;100859.75;5001520;28;20041;-69
2023/02/17 00:50:47;;;;;;;1.65;0.80;;;;;;;10.72;100.00;100867.81;5001531;28;20145;-69
2023/02/17 00:53:13;;;;;;;1.63;0.52;;;;;;;10.74;100.00;100868.25;4996655;28;20117;-69
2023/02/17 00:55:39;;;;;;;0.65;0.57;;;;;;;10.74;100.00;100862.88;4991987;28;20097;-70
2023/02/17 00:58:05;;;;;;;4.32;1.38;;;;;;;10.84;100.00;100858.84;5000500;28;20038;-69
2023/02/17 01:00:33;;;;;;;4.13;0.85;;;;;;;10.64;100.00;100855.34;5003297;28;20034;-69
2023/02/17 01:02:59;;;;;;;1.77;0.93;;;;;;;10.84;100.00;100856.94;5000057;28;20129;-70
2023/02/17 01:05:25;;;;;;;0.95;0.95;;;;;;;10.68;100.00;100856.19;5002118;28;20121;-69
2023/02/17 01:07:50;;;;;;;1.30;0.77;;;;;;;10.66;100.00;100857.69;4999127;28;20038;-69
2023/02/17 01:10:16;;;;;;;2.28;1.05;;;;;;;10.69;100.00;100855.06;4987387;28;20041;-69
2023/02/17 01:12:41;;;;;;;0.82;0.70;;;;;;;10.52;100.00;100852.75;4998854;28;20462;-69
2023/02/17 01:15:07;;;;;;;1.58;1.20;;;;;;;10.58;100.00;100845.97;4995187;28;20084;-69
2023/02/17 01:17:33;;;;;;;3.25;1.10;;;;;;;10.67;100.00;100835.78;5002240;28;20080;-70
2023/02/17 01:19:58;;;;;;;3.58;0.93;;;;;;;10.85;100.00;100828.09;4993632;28;20038;-69
2023/02/17 01:22:24;;;;;;;1.42;1.20;;;;;;;10.78;100.00;100833.34;5007985;28;20073;-69
2023/02/17 01:24:49;;;;;;;1.83;1.52;;;;;;;10.80;100.00;100834.53;5003442;28;20042;-69
2023/02/17 01:27:14;;;;;;;1.45;0.77;;;;;;;10.78;100.00;100831.41;4996807;28;20022;-70
2023/02/17 01:29:40;;;;;;;1.42;1.25;;;;;;;10.81;100.00;100825.34;4985176;28;20487;-70
2023/02/17 01:32:05;;;;;;;1.60;0.80;;;;;;;10.95;100.00;100824.06;5010055;28;20490;-70
2023/02/17 01:34:31;;;;;;;2.05;0.90;;;;;;;10.89;100.00;100821.66;4999070;28;20924;-69
2023/02/17 01:36:57;;;;;;;0.40;0.40;;;;;;;10.88;100.00;100822.78;5005057;28;20029;-69
2023/02/17 01:39:23;;;;;;;1.17;0.65;;;;;;;10.87;100.00;100805.06;5004762;28;20121;-69
2023/02/17 01:41:49;;;;;;;1.17;0.70;;;;;;;10.76;100.00;100812.13;5007827;28;20113;-69
2023/02/17 01:44:21;;;;;;;0.88;0.82;;;;;;;10.76;100.00;100803.28;5004031;28;20108;-69
2023/02/17 01:46:49;;;;;;;1.10;0.70;;;;;;;10.88;100.00;100803.13;4996973;28;20117;-69
2023/02/17 01:49:27;;;;;;;0.98;0.98;;;;;;;10.96;100.00;100794.06;4993037;28;20037;-69
2023/02/17 01:52:03;;;;;;;0.55;0.55;;;;;;;10.91;100.00;100786.28;5006428;28;20034;-70
2023/02/17 01:54:36;;;;;;;3.35;0.65;;;;;;;10.99;100.00;100784.50;4982529;28;20493;-70
2023/02/17 01:57:02;;;;;;;1.95;0.98;;;;;;;10.89;100.00;100778.56;4998637;28;20034;-69
2023/02/17 01:59:29;;;;;;;1.73;1.40;;;;;;;10.90;100.00;100776.63;5002621;28;20034;-69
2023/02/17 02:01:59;;;;;;;0.57;0.50;;;;;;;11.00;100.00;100772.59;4999071;28;20667;-69
2023/02/17 02:04:29;;;;;;;0.55;0.55;;;;;;;11.01;100.00;100766.88;4988412;28;20045;-69
2023/02/17 02:06:55;;;;;;;1.08;0.60;;;;;;;10.92;100.00;100758.19;5005513;28;20109;-69
2023/02/17 02:09:26;;;;;;;2.28;1.25;;;;;;;10.97;100.00;100762.53;4997142;28;20409;-69
2023/02/17 02:11:52;;;;;;;0.68;0.68;;;;;;;11.07;100.00;100757.34;5002103;28;20038;-69
2023/02/17 02:14:20;;;;;;;1.70;1.00;;;;;;;11.05;100.00;100745.38;4992399;28;20121;-69
2023/02/17 02:17:11;;;;;;;1.45;0.80;;;;;;;11.09;100.00;100730.81;4994033;28;20418;-70
2023/02/17 02:20:07;;;;;;;0.85;0.77;;;;;;;10.93;100.00;100732.03;5008275;28;20042;-69
2023/02/17 02:23:05;;;;;;;2.05;1.42;;;;;;;11.00;100.00;100726.78;4994944;28;20156;-69
2023/02/17 02:26:02;;;;;;;1.98;0.90;;;;;;;10.92;100.00;100719.72;4999897;28;20034;-69
2023/02/17 02:29:01;;;;;;;1.45;0.80;;;;;;;11.10;100.00;100712.75;4999495;28;20034;-69
2023/02/17 02:32:03;;;;;;;1.35;0.80;;;;;;;11.24;100.00;100715.72;4998460;28;20463;-69
2023/02/17 02:34:35;;;;;;;1.23;0.85;;;;;;;11.27;100.00;100706.91;5007500;28;20121;-69
2023/02/17 02:37:11;;;;;;;0.75;0.57;;;;;;;11.22;100.00;100712.59;5015980;28;20046;-69
2023/02/17 02:39:45;;;;;;;0.90;0.68;;;;;;;11.11;100.00;100701.59;5009078;28;20034;-69
2023/02/17 02:42:15;;;;;;;2.67;1.15;;;;;;;11.10;100.00;100685.78;5004601;28;20050;-69
2023/02/17 02:44:41;;;;;;;2.22;0.80;;;;;;;11.15;100.00;100691.66;5010507;28;20520;-69
2023/02/17 02:47:46;;;;;;;2.35;0.73;;;;;;;11.21;100.00;100694.84;4992166;28;20053;-69
2023/02/17 02:50:34;;;;;;;0.45;0.45;;;;;;;11.13;100.00;100685.09;4999659;28;20376;-69
2023/02/17 02:53:29;;;;;;;2.38;0.80;;;;;;;11.02;100.00;100686.78;4991924;28;20042;-69
2023/02/17 02:56:04;;;;;;;1.08;0.65;;;;;;;11.16;100.00;100692.44;4994301;28;20045;-69
2023/02/17 02:59:00;;;;;;;0.90;0.57;;;;;;;11.23;100.00;100698.75;5002551;28;20458;-69
2023/02/17 03:01:35;;;;;;;1.58;0.70;;;;;;;11.29;100.00;100681.16;4998868;28;20527;-70
2023/02/17 03:04:25;;;;;;;0.50;0.50;;;;;;;11.29;100.00;100688.44;5002344;28;20034;-69
2023/02/17 03:07:32;;;;;;;0.65;0.65;;;;;;;11.27;100.00;100669.94;5005751;28;20088;-69
2023/02/17 03:09:59;;;;;;;2.50;0.65;;;;;;;11.32;100.00;100666.19;4991796;28;20443;-69
2023/02/17 03:12:26;;;;;;;0.30;0.30;;;;;;;11.42;100.00;100671.72;4994452;28;20030;-69
2023/02/17 03:14:56;;;;;;;0.60;0.30;;;;;;;11.36;100.00;100665.09;4999338;28;20053;-69
2023/02/17 03:17:21;;;;;;;1.02;0.40;;;;;;;11.21;100.00;100662.50;5007308;28;20390;-69
2023/02/17 03:19:49;;;;;;;0.95;0.70;;;;;;;11.33;100.00;100670.41;5002378;28;20747;-69
2023/02/17 03:22:27;;;;;;;0.70;0.63;;;;;;;11.43;100.00;100661.75;5008895;28;20076;-69
2023/02/17 03:24:52;;;;;;;1.25;0.85;;;;;;;11.39;100.00;100650.91;4997098;28;20121;-69
2023/02/17 03:27:18;;;;;;;0.32;0.32;;;;;;;11.41;100.00;100647.84;5003780;28;20465;-69
2023/02/17 03:29:43;;;;;;;1.13;1.02;;;;;;;11.28;100.00;100646.47;5006542;28;20033;-71
2023/02/17 03:32:10;;;;;;;0.68;0.55;;;;;;;11.30;100.00;100636.09;5001152;28;20461;-71
2023/02/17 03:34:35;;;;;;;0.60;0.60;;;;;;;11.26;100.00;100646.03;4992914;28;20042;-71
2023/02/17 03:37:01;;;;;;;0.28;0.25;;;;;;;11.15;100.00;100637.00;5002956;28;20537;-72
2023/02/17 03:39:26;;;;;;;0.52;0.52;;;;;;;11.23;100.00;100638.66;5004543;28;20041;-72
2023/02/17 03:41:52;;;;;;;0.57;0.50;;;;;;;11.23;100.00;100635.97;5010475;28;20033;-70
2023/02/17 03:44:18;;;;;;;1.52;0.43;;;;;;;11.27;100.00;100639.50;5006237;28;20517;-71
2023/02/17 03:46:45;;;;;;;1.33;0.60;;;;;;;11.32;100.00;100634.63;5005197;28;20038;-72
2023/02/17 03:49:10;;;;;;;1.02;0.95;;;;;;;11.36;100.00;100629.28;4994809;28;20034;-68
2023/02/17 03:51:36;;;;;;;0.93;0.65;;;;;;;11.50;100.00;100630.28;4985184;28;20491;-70
2023/02/17 03:54:01;;;;;;;0.98;0.75;;;;;;;11.56;100.00;100636.13;5004709;28;20041;-70
2023/02/17 03:56:27;;;;;;;1.80;0.43;;;;;;;11.49;100.00;100641.44;4996664;28;20501;-70
2023/02/17 03:58:52;;;;;;;1.30;0.73;;;;;;;11.54;100.00;100630.31;4992771;28;20049;-70
2023/02/17 04:01:18;;;;;;;0.68;0.32;;;;;;;11.46;100.00;100629.44;4999792;28;20057;-70
2023/02/17 04:03:44;;;;;;;0.70;0.70;;;;;;;11.30;100.00;100625.31;4995020;28;20100;-70
2023/02/17 04:06:10;;;;;;;0.75;0.50;;;;;;;11.45;100.00;100632.50;4992625;28;20502;-70
2023/02/17 04:08:36;;;;;;;0.45;0.45;;;;;;;11.47;100.00;100628.31;4991009;28;20022;-70
2023/02/17 04:11:02;;;;;;;1.35;0.50;;;;;;;11.48;100.00;100618.28;5002133;28;20033;-70
2023/02/17 04:13:28;;;;;;;0.25;0.25;;;;;;;11.57;100.00;100616.91;4998514;28;20045;-70
2023/02/17 04:15:54;;;;;;;0.60;0.60;;;;;;;11.50;100.00;100618.69;4998326;28;20034;-70
2023/02/17 04:18:20;;;;;;;0.68;0.45;;;;;;;11.44;100.00;100620.91;5000238;28;20299;-70
2023/02/17 04:20:48;;;;;;;0.77;0.43;;;;;;;11.42;100.00;100615.13;4996221;28;20487;-70
2023/02/17 04:23:14;;;;;;;0.57;0.57;;;;;;;11.52;100.00;100614.50;4996929;28;20426;-70
2023/02/17 04:25:40;;;;;;;0.50;0.50;;;;;;;11.54;100.00;100617.63;4995980;28;20042;-70
2023/02/17 04:28:08;;;;;;;1.63;0.30;;;;;;;11.55;100.00;100619.19;4999502;28;20061;-70
2023/02/17 04:30:34;;;;;;;1.00;0.85;;;;;;;11.59;100.00;100611.16;4993002;28;20120;-70
2023/02/17 04:33:00;;;;;;;1.10;0.75;;;;;;;11.68;100.00;100619.78;4999506;28;20044;-70
2023/02/17 04:35:26;;;;;;;0.30;0.30;;;;;;;11.66;100.00;100616.69;4995617;28;20050;-70
2023/02/17 04:37:52;;;;;;;0.43;0.43;;;;;;;11.64;100.00;100633.19;5002501;28;20037;-70
2023/02/17 04:40:17;;;;;;;0.20;0.20;;;;;;;11.53;100.00;100624.16;5007450;28;20037;-70
2023/02/17 04:42:43;;;;;;;0.63;0.57;;;;;;;11.51;100.00;100617.56;5002009;28;20495;-70
2023/02/17 04:45:08;;;;;;;1.13;0.30;;;;;;;11.59;100.00;100614.59;5006874;28;20034;-70
2023/02/17 04:47:34;;;;;;;0.73;0.73;;;;;;;11.73;100.00;100611.38;5000110;28;20364;-70
2023/02/17 04:50:00;;;;;;;0.52;0.47;;;;;;;11.71;100.00;100603.66;4989962;28;20042;-70
2023/02/17 04:52:25;;;;;;;0.45;0.38;;;;;;;11.78;100.00;100597.59;5001789;28;20038;-70
2023/02/17 04:54:51;;;;;;;1.50;0.90;;;;;;;11.67;100.00;100599.38;4996107;28;20042;-70
2023/02/17 04:57:16;;;;;;;0.10;0.10;;;;;;;11.68;100.00;100604.38;4990918;28;20554;-71
2023/02/17 04:59:42;;;;;;;0.40;0.40;;;;;;;11.67;100.00;100604.75;4995117;28;20034;-70
2023/02/17 05:02:07;;;;;;;1.45;0.55;;;;;;;11.61;100.00;100606.94;4999324;28;20410;-70
2023/02/17 05:04:33;;;;;;;0.55;0.55;;;;;;;11.63;100.00;100598.50;4993353;28;20407;-70
2023/02/17 05:06:59;;;;;;;0.73;0.25;;;;;;;11.62;100.00;100603.09;4990692;28;20026;-70
2023/02/17 05:09:24;;;;;;;0.45;0.32;;;;;;;11.62;100.00;100596.94;4992930;28;20081;-71
2023/02/17 05:11:50;;;;;;;0.52;0.52;;;;;;;11.76;100.00;100584.47;4991103;28;20034;-70
2023/02/17 05:14:15;;;;;;;0.30;0.30;;;;;;;11.59;100.00;100581.47;4990670;28;20065;-70
2023/02/17 05:16:41;;;;;;;0.50;0.50;;;;;;;11.62;100.00;100583.44;4997163;28;20014;-70
2023/02/17 05:19:06;;;;;;;0.47;0.47;;;;;;;11.67;100.00;100588.56;5001651;28;20153;-70
2023/02/17 05:21:32;;;;;;;1.35;0.43;;;;;;;11.78;100.00;100574.09;4989227;28;20121;-70
2023/02/17 05:23:58;;;;;;;0.40;0.40;;;;;;;11.73;100.00;100570.91;4989757;28;20457;-70
2023/02/17 05:26:23;;;;;;;0.32;0.32;;;;;;;11.76;100.00;100554.00;4995594;28;20037;-70
2023/02/17 05:28:49;;;;;;;0.63;0.50;;;;;;;11.80;100.00;100557.53;4990496;28;20034;-70
2023/02/17 05:31:15;;;;;;;0.43;0.30;;;;;;;11.85;100.00;100551.81;4995129;28;20034;-70
2023/02/17 05:33:43;;;;;;;0.45;0.20;;;;;;;11.85;100.00;100551.03;4998885;28;20100;-70
2023/02/17 05:36:10;;;;;;;0.40;0.22;;;;;;;11.76;100.00;100548.63;4996692;28;20037;-69
2023/02/17 05:38:36;;;;;;;0.65;0.32;;;;;;;11.81;100.00;100537.50;4995291;28;20022;-70
2023/02/17 05:41:02;;;;;;;0.38;0.38;;;;;;;11.76;100.00;100544.00;4993591;28;20118;-70
2023/02/17 05:43:28;;;;;;;1.67;0.70;;;;;;;11.65;100.00;100534.19;4990684;28;20030;-70
2023/02/17 05:45:54;;;;;;;0.35;0.32;;;;;;;11.73;100.00;100525.84;4997500;28;20316;-70
2023/02/17 05:48:19;;;;;;;0.82;0.63;;;;;;;11.80;100.00;100527.84;5000554;28;20053;-70
2023/02/17 05:50:48;;;;;;;1.17;0.82;;;;;;;11.81;100.00;100517.84;5006744;28;20026;-70
2023/02/17 05:53:13;;;;;;;0.90;0.70;;;;;;;11.73;100.00;100522.34;4990824;28;20060;-70
2023/02/17 05:55:38;;;;;;;0.95;0.75;;;;;;;11.66;100.00;100519.56;4996705;28;20066;-70
2023/02/17 05:58:04;;;;;;;1.20;1.10;;;;;;;11.76;100.00;100513.53;5000275;28;20335;-70
2023/02/17 06:00:30;;;;;;;1.95;0.93;;;;;;;11.81;100.00;100507.81;4995793;28;20177;-70
2023/02/17 06:02:55;;;;;;;1.23;0.77;;;;;;;11.83;100.00;100508.22;4997488;28;20346;-70
2023/02/17 06:05:21;;;;;;;0.80;0.52;;;;;;;11.81;100.00;100502.41;4996300;28;20037;-70
2023/02/17 06:07:46;;;;;;;2.45;0.30;;;;;;;11.91;100.00;100503.69;4995044;28;20018;-70
2023/02/17 06:10:12;;;;;;;0.63;0.63;;;;;;;11.99;100.00;100503.44;4995055;28;20030;-70
2023/02/17 06:12:37;;;;;;;0.57;0.57;;;;;;;12.00;100.00;100507.66;4998097;28;20113;-70
2023/02/17 06:15:03;;;;;;;1.25;1.15;;;;;;;12.05;100.00;100507.34;4975908;28;20046;-70
2023/02/17 06:17:28;;;;;;;0.63;0.63;;;;;;;12.02;100.00;100508.06;5003165;28;20017;-70
2023/02/17 06:19:54;;;;;;;1.55;0.90;;;;;;;12.02;100.00;100494.59;5006383;28;20487;-70
2023/02/17 06:22:19;;;;;;;1.10;0.43;;;;;;;11.94;100.00;100492.97;5008771;28;20033;-70
2023/02/17 06:24:45;;;;;;;0.17;0.17;;;;;;;11.89;100.00;100490.56;5004335;28;20387;-70
2023/02/17 06:27:10;;;;;;;0.90;0.73;;;;;;;11.97;100.00;100489.53;5012320;28;20558;-70
2023/02/17 06:29:36;;;;;;;0.63;0.47;;;;;;;11.98;100.00;100482.22;4992935;28;20030;-70
2023/02/17 06:32:01;;;;;;;0.30;0.30;;;;;;;11.87;100.00;100481.28;5000350;28;20548;-70
2023/02/17 06:34:27;;;;;;;1.77;1.13;;;;;;;11.92;100.00;100475.59;5001698;28;20463;-70
2023/02/17 06:36:52;;;;;;;1.55;0.63;;;;;;;11.86;100.00;100472.44;4992148;28;20018;-70
2023/02/17 06:39:18;;;;;;;0.47;0.47;;;;;;;11.76;100.00;100467.69;4993481;28;20553;-70
2023/02/17 06:41:43;;;;;;;2.05;0.95;;;;;;;11.86;100.00;100452.75;5001179;28;20048;-70
2023/02/17 06:44:09;;;;;;;0.65;0.40;;;;;;;11.92;100.00;100454.00;5011217;28;20192;-70
2023/02/17 06:46:34;;;;;;;1.17;0.63;;;;;;;11.99;100.00;100443.28;5008981;28;20068;-70
2023/02/17 06:49:00;;;;;;;0.10;0.10;;;;;;;11.94;100.00;100430.13;4992004;28;20054;-70
2023/02/17 06:51:26;;;;;;;0.52;0.52;;;;;;;11.88;100.00;100424.28;4995017;28;20042;-70
2023/02/17 06:53:52;;;;;;;1.00;0.60;;;;;;;11.85;100.00;100416.91;5003870;28;20079;-70
2023/02/17 06:56:18;;;;;;;0.17;0.17;;;;;;;11.93;100.00;100429.34;4980099;28;20109;-70
2023/02/17 06:58:43;;;;;;;0.20;0.20;;;;;;;11.85;100.00;100410.72;5006659;28;20324;-71
2023/02/17 07:01:20;;;;;;;0.70;0.20;;;;;;;11.87;100.00;100421.94;4991145;28;20380;-71
2023/02/17 07:03:46;;;;;;;0.45;0.45;;;;;;;11.78;100.00;100423.00;4997023;28;20450;-71
2023/02/17 07:06:12;;;;;;;2.28;1.05;;;;;;;11.83;100.00;100419.19;5002433;28;20033;-71
2023/02/17 07:08:37;;;;;;;2.70;0.90;;;;;;;11.88;100.00;100418.09;4990746;28;20030;-70
2023/02/17 07:11:07;;;;;;;0.63;0.57;;;;;;;11.78;100.00;100406.81;4994621;28;20101;-70
2023/02/17 07:13:33;;;;;;;0.30;0.30;;;;;;;11.82;100.00;100406.84;4996029;28;20129;-70
2023/02/17 07:15:59;;;;;;;0.57;0.57;;;;;;;11.87;100.00;100409.22;5009807;28;20038;-70
2023/02/17 07:18:24;;;;;;;0.35;0.35;;;;;;;11.91;100.00;100399.25;5008474;28;20053;-71
2023/02/17 07:20:49;;;;;;;0.40;0.40;;;;;;;11.85;100.00;100400.72;4999679;28;20486;-71
2023/02/17 07:23:15;;;;;;;1.65;0.80;;;;;;;11.84;100.00;100391.06;5006769;28;20022;-70
2023/02/17 07:25:40;;;;;;;0.30;0.30;;;;;;;12.00;100.00;100399.72;5003324;28;20030;-70
2023/02/17 07:28:06;;;;;;;1.00;0.80;;;;;;;12.06;100.00;100398.22;5007682;28;20041;-70
2023/02/17 07:30:31;;;;;;;0.15;0.15;;;;;;;11.96;100.00;100393.53;5009190;28;20042;-70
2023/02/17 07:32:57;;;;;;;4.13;0.98;;;;;;;11.91;100.00;100388.44;5007871;28;20022;-70
2023/02/17 07:35:22;;;;;;;1.95;0.70;;;;;;;11.86;100.00;100380.69;5000850;28;20044;-70
2023/02/17 07:37:48;;;;;;;1.08;0.68;;;;;;;11.85;100.00;100383.75;4999587;28;20033;-70
2023/02/17 07:40:13;;;;;;;1.50;0.95;;;;;;;11.85;100.00;100389.91;5000489;28;20503;-70
2023/02/17 07:42:39;;;;;;;0.70;0.65;;;;;;;11.88;100.00;100388.41;4992848;28;20022;-71
2023/02/17 07:45:06;;;;;;;1.08;0.85;;;;;;;11.88;100.00;100383.81;5005716;28;20030;-70
2023/02/17 07:47:32;;;;;;;1.88;1.33;;;;;;;12.01;100.00;100381.59;5007200;28;20026;-70
2023/02/17 07:49:57;;;;;;;2.65;1.15;;;;;;;11.90;100.00;100373.41;5002828;28;20080;-70
2023/02/17 07:52:22;;;;;;;1.15;0.63;;;;;;;11.96;100.00;100374.63;5000122;28;20033;-70
2023/02/17 07:54:48;;;;;;;2.40;0.50;;;;;;;11.92;100.00;100364.94;4992941;28;20540;-70
2023/02/17 07:57:13;;;;;;;0.47;0.47;;;;;;;11.80;100.00;100371.38;4991428;28;20033;-70
2023/02/17 07:59:39;;;;;;;0.80;0.80;;;;;;;12.03;100.00;100373.91;5005345;28;20572;-70
2023/02/17 08:02:04;;;;;;;0.88;0.68;;;;;;;12.04;100.00;100370.09;4999709;28;20034;-70
2023/02/17 08:04:31;;;;;;;0.98;0.60;;;;;;;12.01;100.00;100365.41;4996312;28;20089;-70
2023/02/17 08:06:57;;;;;;;0.43;0.43;;;;;;;11.96;100.00;100380.03;4996633;28;20042;-70
2023/02/17 08:14:59;;;;;;;0.90;0.30;;;;;;;11.90;100.00;100332.16;5006314;28;20034;-70
2023/02/17 08:17:24;;;;;;;1.10;0.80;;;;;;;11.91;100.00;100333.69;4997852;28;20395;-70
2023/02/17 08:19:50;;;;;;;0.40;0.40;;;;;;;12.03;100.00;100334.22;4995754;28;20064;-70
2023/02/17 08:22:16;;;;;;;1.25;0.90;;;;;;;12.06;100.00;100324.59;5008493;28;20073;-70
2023/02/17 08:24:41;;;;;;;0.75;0.68;;;;;;;11.86;100.00;100337.53;5006370;28;20025;-71
2023/02/17 08:27:07;;;;;;;1.75;0.85;;;;;;;11.90;100.00;100316.75;4999331;28;20398;-71
2023/02/17 08:29:33;;;;;;;0.63;0.63;;;;;;;11.85;100.00;100311.69;5002764;28;20034;-71
2023/02/17 08:31:58;;;;;;;1.52;0.75;;;;;;;11.77;100.00;100308.13;4999331;28;20041;-71
2023/02/17 08:34:24;;;;;;;0.95;0.52;;;;;;;11.93;100.00;100301.72;5003450;28;20092;-71
2023/02/17 08:36:49;;;;;;;0.45;0.43;;;;;;;12.04;100.00;100295.25;4997774;28;20100;-70
2023/02/17 08:39:16;;;;;;;1.35;0.40;;;;;;;12.12;100.00;100288.00;5007974;28;20542;-71
2023/02/17 08:41:43;;;;;;;1.33;0.40;;;;;;;12.08;100.00;100285.28;5003530;28;20055;-71
2023/02/17 08:44:13;;;;;;;1.13;0.85;;;;;;;11.90;100.00;100281.69;5006209;28;20037;-70
2023/02/17 08:46:39;;;;;;;3.80;0.47;;;;;;;11.86;100.00;100288.19;5005364;28;20502;-70
2023/02/17 08:49:05;;;;;;;0.75;0.75;;;;;;;11.97;100.00;100272.84;5002145;28;20040;-70
2023/02/17 08:51:33;;;;;;;1.85;0.73;;;;;;;11.90;100.00;100284.38;5007439;28;20034;-70
2023/02/17 08:53:59;;;;;;;1.25;1.15;;;;;;;11.93;100.00;100270.13;5009315;28;20026;-70
2023/02/17 08:56:26;;;;;;;2.05;1.27;;;;;;;12.04;100.00;100276.38;4997878;28;20035;-71
2023/02/17 08:58:52;;;;;;;1.02;0.60;;;;;;;12.12;100.00;100266.41;4992291;28;20041;-70
2023/02/17 09:01:18;;;;;;;0.65;0.65;;;;;;;12.07;100.00;100278.34;5002647;28;20037;-71
2023/02/17 09:03:45;;;;;;;0.75;0.50;;;;;;;12.09;100.00;100299.56;4998251;28;20033;-71
2023/02/17 09:06:12;;;;;;;1.15;0.57;;;;;;;12.04;100.00;100308.75;5000688;28;20034;-71
2023/02/17 09:08:39;;;;;;;0.35;0.35;;;;;;;11.93;100.00;100294.41;4995346;28;20025;-71
2023/02/17 09:11:06;;;;;;;1.08;0.65;;;;;;;12.10;100.00;100303.81;4996436;28;20041;-71
2023/02/17 09:13:32;;;;;;;0.00;0.00;;;;;;;11.95;100.00;100302.91;4994345;28;20446;-71
2023/02/17 09:16:00;;;;;;;0.32;0.32;;;;;;;12.02;100.00;100300.25;5002088;28;20022;-71
2023/02/17 09:18:28;;;;;;;1.40;0.87;;;;;;;12.09;100.00;100292.25;4997566;28;20791;-71
2023/02/17 09:20:53;;;;;;;0.55;0.55;;;;;;;12.05;100.00;100269.06;5002623;28;20108;-71
2023/02/17 09:23:19;;;;;;;1.27;0.82;;;;;;;11.97;100.00;100262.06;5008733;28;20049;-70
2023/02/17 09:25:45;;;;;;;0.52;0.47;;;;;;;12.00;100.00;100270.16;5001624;28;20053;-70
2023/02/17 09:28:12;;;;;;;0.45;0.45;;;;;;;12.04;100.00;100273.69;4999989;28;20041;-70
2023/02/17 09:30:38;;;;;;;0.95;0.45;;;;;;;12.07;100.00;100262.16;5007996;28;20398;-71
2023/02/17 09:33:04;;;;;;;0.60;0.60;;;;;;;12.16;100.00;100265.28;4997773;28;20489;-71
2023/02/17 09:35:31;;;;;;;0.75;0.50;;;;;;;12.03;100.00;100245.16;5004049;28;20037;-70
2023/02/17 09:37:57;;;;;;;0.50;0.50;;;;;;;12.18;100.00;100251.41;4992586;28;20034;-71
2023/02/17 09:40:36;;;;;;;0.65;0.45;;;;;;;12.07;100.00;100240.56;4996715;28;20038;-70
2023/02/17 09:43:04;;;;;;;0.50;0.43;;;;;;;12.00;100.00;100229.69;5005516;28;20483;-70
2023/02/17 09:45:34;;;;;;;0.73;0.73;;;;;;;12.15;100.00;100228.66;5005890;28;20034;-70
2023/02/17 09:48:05;;;;;;;0.63;0.63;;;;;;;12.24;100.00;100223.69;5005116;28;20058;-70
2023/02/17 09:50:41;;;;;;;2.47;0.52;;;;;;;12.05;100.00;100209.69;4998709;28;20486;-68
2023/02/17 09:53:21;;;;;;;1.15;0.65;;;;;;;12.07;100.00;100202.00;4999403;28;20056;-72
2023/02/17 09:55:56;;;;;;;2.78;0.80;;;;;;;12.20;100.00;100214.03;5006991;28;20105;-69
2023/02/17 09:58:33;;;;;;;0.50;0.17;;;;;;;12.18;100.00;100214.41;4990385;28;20145;-69
2023/02/17 10:01:05;;;;;;;1.10;0.60;;;;;;;12.09;100.00;100219.38;5000091;28;20065;-71
2023/02/17 10:03:46;;;;;;;0.95;0.22;;;;;;;12.22;100.00;100215.19;5002523;28;20038;-73
2023/02/17 10:06:21;;;;;;;0.57;0.57;;;;;;;12.20;100.00;100216.72;4998870;28;20038;-74
2023/02/17 10:09:10;;;;;;;1.13;0.45;;;;;;;12.10;100.00;100202.00;4999528;28;20030;-69
2023/02/17 10:11:43;;;;;;;0.32;0.32;;;;;;;12.09;100.00;100211.28;5001510;28;20046;-73
2023/02/17 10:14:14;;;;;;;0.20;0.20;;;;;;;12.10;100.00;100212.81;5003771;28;20034;-70
2023/02/17 10:16:56;;;;;;;2.22;0.93;;;;;;;12.01;100.00;100223.16;4999088;28;20103;-71
2023/02/17 10:19:30;;;;;;;1.27;1.20;;;;;;;11.93;100.00;100210.75;5004308;28;20038;-74
2023/02/17 10:22:04;;;;;;;1.27;0.95;;;;;;;11.82;100.00;100217.22;4998865;28;20026;-70
2023/02/17 10:24:30;;;;;;;0.32;0.32;;;;;;;12.02;100.00;100211.19;5004205;28;20034;-70
2023/02/17 10:27:01;;;;;;;1.17;0.45;;;;;;;11.86;100.00;100221.50;4998545;28;20030;-71
2023/02/17 10:29:48;;;;;;;4.35;0.70;;;;;;;12.09;100.00;100229.38;5005736;28;20064;-72
2023/02/17 10:32:23;;;;;;;1.70;0.73;;;;;;;12.02;100.00;100219.28;5002926;28;20490;-73
2023/02/17 10:35:13;;;;;;;0.32;0.32;;;;;;;12.14;100.00;100232.50;4988672;28;20026;-68
2023/02/17 10:37:44;;;;;;;0.20;0.20;;;;;;;12.23;100.00;100221.38;4974428;28;20050;-69
2023/02/17 10:40:22;;;;;;;2.15;0.63;;;;;;;12.37;100.00;100234.94;5003719;28;20384;-73
2023/02/17 10:43:00;;;;;;;0.35;0.35;;;;;;;12.14;100.00;100237.91;5004314;28;20116;-69
2023/02/17 10:45:39;;;;;;;0.35;0.35;;;;;;;12.18;100.00;100227.13;5001099;28;20041;-73
2023/02/17 10:48:11;;;;;;;0.10;0.10;;;;;;;12.22;100.00;100220.59;5001042;28;20046;-67
2023/02/17 10:50:41;;;;;;;0.45;0.38;;;;;;;12.23;100.00;100210.59;4998486;28;20108;-69
2023/02/17 10:53:13;;;;;;;0.77;0.70;;;;;;;12.28;100.00;100219.09;5005547;28;20046;-72
2023/02/17 10:56:04;;;;;;;1.15;0.50;;;;;;;12.35;100.00;100211.03;4980880;28;20023;-69
2023/02/17 10:58:39;;;;;;;1.45;0.40;;;;;;;12.39;100.00;100208.34;4996999;28;20088;-70
2023/02/17 11:01:05;;;;;;;0.28;0.20;;;;;;;12.33;100.00;100201.78;5001588;28;20042;-68
2023/02/17 11:03:32;;;;;;;0.93;0.60;;;;;;;12.35;100.00;100204.88;4985901;28;20022;-70
2023/02/17 11:05:59;;;;;;;0.57;0.57;;;;;;;12.25;100.00;100192.09;5002814;28;20109;-70
2023/02/17 11:08:38;;;;;;;0.10;0.10;;;;;;;12.33;100.00;100194.44;5013738;28;20049;-72
2023/02/17 11:11:17;;;;;;;0.85;0.75;;;;;;;12.32;100.00;100192.13;5003076;28;20056;-70
2023/02/17 11:13:55;;;;;;;0.20;0.15;;;;;;;12.49;100.00;100181.41;5003554;28;20506;-69
2023/02/17 11:16:26;;;;;;;0.47;0.47;;;;;;;12.58;100.00;100170.28;5001900;28;20061;-70
2023/02/17 11:18:54;;;;;;;1.77;0.98;;;;;;;12.57;100.00;100161.38;5002535;28;20029;-73
2023/02/17 11:21:19;;;;;;;0.70;0.70;;;;;;;12.43;100.00;100188.31;5004208;28;20410;-69
2023/02/17 11:23:53;;;;;;;3.20;0.38;;;;;;;12.44;100.00;100178.31;5005121;28;20025;-72
2023/02/17 11:26:25;;;;;;;0.45;0.28;;;;;;;12.52;100.00;100186.03;5020802;28;20553;-69
2023/02/17 11:28:50;;;;;;;0.43;0.40;;;;;;;12.23;100.00;100170.09;5002496;28;20409;-69
2023/02/17 11:31:28;;;;;;;0.05;0.05;;;;;;;12.22;100.00;100173.94;5005135;28;20100;-70